Station 45196 - Rocky River, OH Image indicating link to RSS feed of recent meteorological observations for station 45196


Conditions at 45196 as of
(4:30 am EDT)
0830 GMT on 05/09/2026:
     

Click on the graph icon in the table below to see a time series plot of the last five days of that observation.

5-day plot - Wind Direction Wind Direction (WDIR):WSW ( 240 deg true )
5-day plot - Wind Speed Wind Speed (WSPD): 11.7 kts
5-day plot - Wind Gust Wind Gust (GST): 15.5 kts
5-day plot - Wave Height Wave Height (WVHT): 1.0 ft
5-day plot - Mean Wave Direction Mean Wave Direction (MWD):WSW ( 237 deg true )
5-day plot - Atmospheric Pressure Atmospheric Pressure (PRES):29.72 in
5-day plot - Air Temperature Air Temperature (ATMP): 54.7 °F
5-day plot - Water Temperature Water Temperature (WTMP): 54.5 °F
5-day plot - Dew Point Dew Point (DEWP): 53.1 °F
5-day plot - Wind Speed at 10 Meters Wind Speed at 10 meters (WSPD10M): 13.6 kts
5-day plot - Wind Speed at 20 Meters Wind Speed at 20 meters (WSPD20M): 15.5 kts
5-day plot -  Wind Speed, Wind Gust and Atmospheric Pressure Combined plot of Wind Speed, Gust, and Air Pressure
Previous observations
TIME
(EDT)
5-day plot - Wind Direction
WDIR
 
5-day plot - Wind Speed
WSPD
kts
5-day plot - Wind Gust
GST
kts
5-day plot - Wave Height
WVHT
ft
5-day plot - Dominant Wave Period
DPD
sec
5-day plot - Average Wave Period
APD
sec
5-day plot - Mean Wave Direction
MWD
 
5-day plot - Atmospheric Pressure
PRES
in
5-day plot - Pressure Tendency
PTDY
in
5-day plot - Air Temperature
ATMP
°F
5-day plot - Water Temperature
WTMP
°F
5-day plot - Dew Point
DEWP
°F
5-day plot - Salinity
SAL
psu
5-day plot - Visibility
VIS
nmi
5-day plot - Tide (above MLLW)
TIDE
ft
2026-05-09 04:20 amWSW 11.7 15.5 1.0-- SW29.72- 54.7 54.3 53.1---
2026-05-09 04:10 am SW 11.7 17.5 1.0--WSW29.72- 54.7 54.3 53.1---
2026-05-09 04:00 am SW 11.7 15.5 1.0-- SW29.72- 54.7 54.3 53.1---
2026-05-09 03:50 am SW 11.7 17.5 1.0-- SW29.72- 54.7 54.1 52.9---
2026-05-09 03:40 am SW 11.7 17.5 1.0-- SW29.72- 54.7 54.1 52.9---
2026-05-09 03:30 amSSW 11.7 17.5 1.0-- SW29.72- 54.7 54.1 52.9---
2026-05-09 03:20 am SW 11.7 15.5 1.0-- SW29.72- 54.7 54.1 52.9---
2026-05-09 03:10 am SW 9.7 13.6 1.0-- SW29.72- 54.7 54.1 52.7---
2026-05-09 03:00 am SW 11.7 15.5 1.0-- SW29.73-0.03 54.7 54.1 52.9---
2026-05-09 02:50 am SW 13.6 17.5 1.0--SSW29.73- 54.7 54.0 52.7---
2026-05-09 02:40 am SW 13.6 19.4 1.0--SSW29.74- 54.7 54.0 52.7---
2026-05-09 02:30 am SW 11.7 15.5 1.0--SSW29.74- 54.5 54.0 52.7---
2026-05-09 02:20 am SW 11.7 17.5 1.0--SSW29.74- 54.5 54.0 52.5---
2026-05-09 02:10 am SW 13.6 17.5 1.0-- S29.75- 54.5 54.0 52.5---
2026-05-09 02:00 amSSW 13.6 17.5 1.0-- S29.75-0.03 54.5 54.0 52.5---
2026-05-09 01:50 amSSW 13.6 19.4 1.0-- S29.75- 54.3 53.8 52.3---
2026-05-09 01:40 amSSW 13.6 19.4 1.0-- S29.75- 54.3 53.8 52.2---
2026-05-09 01:20 am S 13.6 17.5 1.0-- S29.75- 54.3 53.8 52.2---
2026-05-09 01:10 am S 13.6 17.5 1.0-- S29.75- 54.3 53.8 52.2---
2026-05-09 12:50 amSSW 13.6 17.5 1.0--SSW29.75- 54.3 53.8 52.2---
2026-05-09 12:40 am S 15.5 19.4 1.0-- SW29.76- 54.3 53.8 52.2---
2026-05-09 12:30 amSSW 15.5 19.4 1.3-- SW29.76- 54.3 53.6 52.2---
2026-05-09 12:20 amSSW 15.5 21.4 1.0-- SW29.76- 54.5 53.6 52.2---
2026-05-09 12:10 am SW 15.5 21.4 1.0-- SW29.76- 54.9 53.6 52.2---
2026-05-09 12:00 am SW 13.6 19.4 1.0--SSW29.76-0.01 55.0 53.6 52.2---
2026-05-08 11:50 pm SW 15.5 21.4 1.0-- SW29.77- 55.0 53.6 52.0---
2026-05-08 11:40 pmSSW 15.5 19.4 1.0-- SW29.77- 55.0 53.6 52.0---
2026-05-08 11:20 pm SW 13.6 17.5 1.0--SSW29.78- 55.0 53.6 51.8---
2026-05-08 11:10 pm SW 15.5 21.4 1.0--SSW29.78- 55.0 53.6 51.8---
2026-05-08 11:00 pmSSW 13.6 19.4 1.0--SSW29.78+0.00 54.7 53.6 51.6---
2026-05-08 10:50 pmSSW 13.6 17.5 1.0--SSW29.78- 54.5 53.6 51.6---
2026-05-08 10:40 pmSSW 15.5 19.4 1.0-- S29.78- 54.3 53.6 51.6---
2026-05-08 10:30 pm S 13.6 17.5 1.0-- S29.78- 54.1 53.6 51.6---
2026-05-08 10:20 pm S 13.6 17.5 1.0-- S29.78- 54.1 53.4 51.6---
2026-05-08 10:10 pmSSW 13.6 17.5 1.0-- S29.78- 54.1 53.4 51.6---
2026-05-08 10:00 pmSSW 11.7 17.5 1.0-- S29.78+0.00 54.1 53.4 51.4---
2026-05-08 09:50 pmSSW 11.7 17.5 1.0-- S29.78- 54.0 53.4 51.4---
2026-05-08 09:40 pmSSW 11.7 17.5 1.0--SSW29.78- 54.0 53.4 51.4---
2026-05-08 09:30 pm S 13.6 17.5 1.0-- S29.78- 54.0 53.4 51.4---
2026-05-08 09:20 pmSSW 13.6 17.5 1.0-- S29.78- 54.0 53.4 51.4---
2026-05-08 09:10 pmSSW 13.6 19.4 1.0--SSW29.78- 54.0 53.4 51.4---
2026-05-08 09:00 pmSSW 15.5 19.4 1.0-- S29.78+0.00 53.8 53.4 51.4---
2026-05-08 08:50 pm S 15.5 19.4 1.0-- S29.78- 53.8 53.4 51.4---
2026-05-08 08:40 pm S 15.5 19.4 1.0-- S29.78- 53.8 53.4 51.4---
2026-05-08 08:30 pmSSW 15.5 19.4 1.0--SSW29.78- 53.4 53.4 51.3---
2026-05-08 08:20 pmSSW 13.6 19.4 1.0--SSW29.78- 53.4 53.4 51.3---
2026-05-08 08:10 pmSSW 13.6 17.5 1.0--SSW29.78- 53.4 53.4 51.1---
2026-05-08 08:00 pm SW 11.7 15.5 1.0-- SW29.78-0.01 53.4 53.4 51.1---
2026-05-08 07:50 pmSSW 11.7 17.5 1.0-- SW29.78- 53.6 53.4 51.1---
2026-05-08 07:40 pm SW 11.7 15.5 1.0-- SW29.78- 53.6 53.4 51.1---
2026-05-08 07:30 pm SW 11.7 15.5 1.0-- SW29.78- 53.6 53.4 50.9---
2026-05-08 07:20 pm SW 11.7 15.5 1.0-- SW29.78- 53.6 53.4 51.1---
2026-05-08 07:10 pm SW 15.5 19.4 1.0-- SW29.78- 53.8 53.4 50.9---
2026-05-08 07:00 pm SW 15.5 19.4 1.0-- SW29.78-0.03 54.1 53.2 50.7---
2026-05-08 06:50 pmSSW 13.6 17.5 0.7-- SW29.78- 54.7 53.2 50.2---
2026-05-08 06:40 pmSSW 11.7 15.5 0.7-- SW29.78- 54.9 53.4 50.5---
2026-05-08 06:30 pmSSW 9.7 11.7 0.7--WSW29.78- 55.2 53.4 50.5---
2026-05-08 06:20 pm SW 9.7 13.6 0.7-- SW29.78- 55.2 53.6 50.4---
2026-05-08 06:10 pm SW 11.7 13.6 0.7-- SW29.78- 55.4 53.6 50.5---
2026-05-08 06:00 pm SW 9.7 15.5 0.7--SSW29.78-0.04 55.6 53.6 50.7---
2026-05-08 05:50 pm SW 7.8 11.7 0.7--SSW29.78- 55.8 53.6 50.5---
2026-05-08 05:40 pm SW 7.8 11.7 0.7--SSW29.78- 55.2 53.8 50.4---
2026-05-08 05:30 pmSSE 1.9 5.8 0.3-- NW29.78- 54.3 53.8 49.1---
2026-05-08 05:20 pmENE 3.9 5.8 0.3-- NW29.78- 53.4 53.8 48.7---
2026-05-08 05:10 pm E 3.9 5.8 0.3-- NW29.79- 53.1 53.6 48.6---
2026-05-08 05:00 pm E 3.9 5.8 0.3-- NW29.79-0.05 53.1 53.8 48.6---
2026-05-08 04:50 pmESE 3.9 5.8 0.3-- NW29.79- 52.7 54.0 48.0---
2026-05-08 04:40 pm SE 3.9 5.8 0.3-- NW29.80- 52.3 54.0 47.5---
2026-05-08 04:30 pmESE 5.8 7.8 0.3-- NW29.80- 52.3 54.0 47.7---
2026-05-08 04:20 pmESE 3.9 5.8 0.3-- NW29.81- 52.3 54.0 47.3---
2026-05-08 04:10 pmESE 1.9 5.8 0.7--WNW29.82- 52.3 53.8 47.3---
2026-05-08 04:00 pm E 3.9 5.8 0.7-- NW29.81-0.05 52.9 54.0 47.7---
2026-05-08 03:50 pm E 3.9 5.8 0.7-- NW29.81- 53.1 53.6 47.5---
2026-05-08 03:40 pm E 3.9 7.8 0.7--WNW29.82- 52.5 53.8 47.7---
2026-05-08 03:30 pm E 5.8 7.8 0.7--WNW29.82- 51.8 54.0 47.5---
2026-05-08 03:20 pmENE 5.8 7.8 0.7--WNW29.82- 51.8 54.1 47.3---
2026-05-08 03:10 pmENE 5.8 7.8 0.7-- NW29.82- 52.2 54.1 47.5---
2026-05-08 03:00 pm E 5.8 7.8 0.7-- NW29.83-0.04 52.5 54.1 47.5---
2026-05-08 02:50 pm E 5.8 7.8 0.7-- NW29.83- 52.7 54.1 47.7---
2026-05-08 02:40 pm E 3.9 7.8 1.0 3- NW29.83- 52.7 54.1 47.7---
2026-05-08 02:30 pm E 3.9 5.8 0.7--WNW29.83- 52.7 54.1 47.7---
2026-05-08 02:20 pm E 5.8 7.8 1.0 3- NW29.83- 52.0 54.0 47.8---
2026-05-08 02:10 pm E 3.9 7.8 1.0 3- NW29.84- 52.3 53.8 48.2---
2026-05-08 02:00 pmENE 3.9 5.8 1.0 3- NW29.84-0.02 51.6 53.6 47.8---
2026-05-08 01:50 pmENE 5.8 7.8 1.0 4- NW29.85- 51.4 53.6 48.0---
2026-05-08 01:40 pm NE 7.8 9.7 1.0 3- NW29.85- 51.6 53.6 48.0---
2026-05-08 01:30 pmNNE 5.8 9.7 1.0 3- NW29.85- 52.0 53.6 47.1---
2026-05-08 01:20 pmNNE 9.7 11.7 1.0 4- NW29.85- 51.8 53.4 47.3---
2026-05-08 01:10 pm N 9.7 13.6 1.3 4- NW29.85- 51.8 53.2 47.1---
2026-05-08 01:00 pm N 9.7 17.5 1.3 3- NW29.86-0.01 51.8 53.1 47.3---
2026-05-08 12:50 pm N 11.7 13.6 1.3 3- NW29.85- 51.8 53.2 47.3---
2026-05-08 12:40 pm N 11.7 13.6 1.3 3- NW29.85- 51.8 53.2 47.5---
2026-05-08 12:30 pm N 11.7 15.5 1.3 4- NW29.86- 51.8 53.2 47.5---
2026-05-08 12:20 pm N 11.7 13.6 1.3 3- NW29.86- 52.0 53.4 47.5---
2026-05-08 12:10 pm N 11.7 13.6 1.3 3- NW29.86- 51.8 53.2 47.5---
2026-05-08 12:00 pm N 11.7 15.5 1.3 4- NW29.86+0.00 52.0 53.4 47.5---
2026-05-08 11:50 am N 11.7 15.5 1.3 4- NW29.86- 52.2 53.4 47.3---
2026-05-08 11:40 am N 11.7 15.5 1.3 4- NW29.86- 52.3 53.4 47.1---
2026-05-08 11:30 am N 11.7 15.5 1.3 3- NW29.86- 52.5 53.4 47.3---
2026-05-08 11:20 amNNW 11.7 15.5 1.3 4- NW29.87- 52.5 53.4 47.1---
2026-05-08 11:10 amNNW 11.7 15.5 1.3 3- NW29.87- 52.5 53.4 46.9---
2026-05-08 11:00 amNNW 11.7 13.6 1.6 4- NW29.87+0.01 52.5 53.4 46.9---
2026-05-08 10:50 am NW 9.7 13.6 1.6 4- NW29.86- 52.5 53.4 46.4---
2026-05-08 10:40 am NW 11.7 13.6 1.3 4- NW29.86- 52.5 53.4 46.6---
2026-05-08 10:30 am NW 11.7 15.5 1.3 4- NW29.86- 52.3 53.4 46.4---
2026-05-08 10:20 am NW 11.7 15.5 1.3 3- NW29.87- 52.3 53.4 46.6---
2026-05-08 10:10 amWNW 9.7 13.6 1.3 4- NW29.87- 52.3 53.6 46.8---
2026-05-08 10:00 amWNW 7.8 11.7 1.3 4- NW29.87+0.02 51.8 53.4 46.8---
2026-05-08 09:50 am W 7.8 13.6 1.3 4- NW29.87- 51.1 53.4 46.4---
2026-05-08 09:40 am W 9.7 13.6 1.6 4- NW29.87- 50.7 53.4 46.0---
2026-05-08 09:30 amWNW 9.7 13.6 1.6 4- NW29.88- 50.5 53.4 46.0---
2026-05-08 09:20 am W 7.8 11.7 1.6 4- NW29.87- 50.5 53.4 45.9---
2026-05-08 09:10 am W 9.7 13.6 1.6 3- NW29.87- 50.5 53.4 45.7---
2026-05-08 09:00 am W 9.7 15.5 1.6 3-WNW29.87+0.03 50.5 53.2 45.5---
2026-05-08 08:50 am W 13.6 17.5 1.6 4-WNW29.87- 50.9 53.4 45.9---
2026-05-08 08:40 am W 15.5 19.4 1.6 4- NW29.87- 51.3 53.4 46.0---
2026-05-08 08:30 am W 13.6 19.4 1.6 4- NW29.87- 51.8 53.4 46.9---
2026-05-08 08:20 am NW 13.6 19.4 1.3 4- NW29.87- 51.6 53.4 47.8---
2026-05-08 08:10 amNNW 15.5 19.4 1.3 4- NW29.86- 51.6 53.4 47.7---
2026-05-08 08:00 am NW 9.7 17.5 1.3 4- NW29.86+0.01 51.3 53.4 46.9---
2026-05-08 07:50 am NW 11.7 15.5 1.3 4- NW29.85- 50.9 53.4 46.2---
2026-05-08 07:40 am NW 7.8 11.7 1.3 4- NW29.85- 50.2 53.4 45.1---
2026-05-08 07:30 am NW 5.8 11.7 1.3 4- NW29.85- 50.0 53.4 44.2---
2026-05-08 07:20 am NW 5.8 7.8 1.3 4- NW29.85- 50.2 53.4 43.7---
2026-05-08 07:10 am NW 5.8 9.7 1.6 4- NW29.85- 50.2 53.4 43.9---
2026-05-08 07:00 amWNW 3.9 7.8 1.6 4- NW29.84+0.00 50.0 53.4 44.1---
2026-05-08 06:50 am W 3.9 7.8 1.3 4- NW29.85- 49.8 53.2 43.5---
2026-05-08 06:40 am W 3.9 7.8 1.3 4- NW29.85- 49.6 53.2 43.3---
2026-05-08 06:20 am W 7.8 11.7 1.6 4- NW29.84- 49.6 53.2 43.9---
2026-05-08 06:10 am W 7.8 11.7 1.6 4- NW29.84- 49.8 53.2 44.1---
2026-05-08 06:00 amWSW 9.7 13.6 1.6 4- NW29.84-0.01 49.8 53.2 44.1---
2026-05-08 05:40 amWSW 11.7 15.5 1.6 4- NW29.84- 50.2 53.2 44.4---
2026-05-08 05:30 am W 11.7 15.5 2.0 4- NW29.84- 50.4 53.2 44.6---
2026-05-08 05:20 am W 13.6 15.5 1.6 4- NW29.84- 50.4 53.2 44.6---
2026-05-08 05:10 amWSW 13.6 17.5 1.6 4-WNW29.84- 50.4 53.2 44.6---
2026-05-08 05:00 amWSW 13.6 17.5 1.6 4-WNW29.85+0.00 50.2 53.2 44.2---
2026-05-08 04:50 amWSW 13.6 17.5 1.6 4-WNW29.84- 50.4 53.2 44.6---
2026-05-08 04:30 amWSW 13.6 17.5 1.6 4-WNW29.84- 50.7 53.2 44.4---
2026-05-08 04:20 amWSW 15.5 19.4 1.6 4- NW29.85- 50.9 53.2 44.4---
2026-05-08 04:10 am W 15.5 19.4 1.3 4- NW29.85- 51.1 53.2 44.4---
2026-05-08 04:00 am W 13.6 17.5 1.6 4-WNW29.85-0.02 51.1 53.2 44.2---

Wave Summary
for 45196 as of (4:30 am EDT)
0830 GMT on 05/09/2026:

These wave data are displayed in rounded times.

     

Click on the graph icon in the table below to see a time series plot of the last five days of that observation.

5-day plot - Significant Wave Height Significant Wave Height (WVHT): 1.0 ft
Previous observations
TIME
(EDT)
5-day plot - Wave Height
WVHT
ft
5-day plot - Swell Height
SwH
ft
5-day plot - Swell Period
SwP
sec
5-day plot - Swell Direction
SwD
 
5-day plot - Wind Wave Height
WWH
ft
5-day plot - Wind Wave Period
WWP
sec
5-day plot - Wind Wave Direction
WWD
 
5-day plot - Wave Steepness
STEEPNESS
 
5-day plot - Average Wave Period
APD
sec
2026-05-09 04:20 am 1.0------ N/A-
2026-05-09 04:10 am 1.0------ N/A-
2026-05-09 04:00 am 1.0------ N/A-
2026-05-09 03:50 am 1.0------ N/A-
2026-05-09 03:40 am 1.0------ N/A-
2026-05-09 03:30 am 1.0------ N/A-
2026-05-09 03:20 am 1.0------ N/A-
2026-05-09 03:10 am 1.0------ N/A-
2026-05-09 03:00 am 1.0------ N/A-
2026-05-09 02:50 am 1.0------ N/A-
2026-05-09 02:40 am 1.0------ N/A-
2026-05-09 02:30 am 1.0------ N/A-
2026-05-09 02:20 am 1.0------ N/A-
2026-05-09 02:10 am 1.0------ N/A-
2026-05-09 02:00 am 1.0------ N/A-
2026-05-09 01:50 am 1.0------ N/A-
2026-05-09 01:40 am 1.0------ N/A-
2026-05-09 01:20 am 1.0------ N/A-
2026-05-09 01:10 am 1.0------ N/A-
2026-05-09 12:50 am 1.0------ N/A-
2026-05-09 12:40 am 1.0------ N/A-
2026-05-09 12:30 am 1.3------ N/A-
2026-05-09 12:20 am 1.0------ N/A-
2026-05-09 12:10 am 1.0------ N/A-
2026-05-09 12:00 am 1.0------ N/A-
2026-05-08 11:50 pm 1.0------ N/A-
2026-05-08 11:40 pm 1.0------ N/A-
2026-05-08 11:20 pm 1.0------ N/A-
2026-05-08 11:10 pm 1.0------ N/A-
2026-05-08 11:00 pm 1.0------ N/A-
2026-05-08 10:50 pm 1.0------ N/A-
2026-05-08 10:40 pm 1.0------ N/A-
2026-05-08 10:30 pm 1.0------ N/A-
2026-05-08 10:20 pm 1.0------ N/A-
2026-05-08 10:10 pm 1.0------ N/A-
2026-05-08 10:00 pm 1.0------ N/A-
2026-05-08 09:50 pm 1.0------ N/A-
2026-05-08 09:40 pm 1.0------ N/A-
2026-05-08 09:30 pm 1.0------ N/A-
2026-05-08 09:20 pm 1.0------ N/A-
2026-05-08 09:10 pm 1.0------ N/A-
2026-05-08 09:00 pm 1.0------ N/A-
2026-05-08 08:50 pm 1.0------ N/A-
2026-05-08 08:40 pm 1.0------ N/A-
2026-05-08 08:30 pm 1.0------ N/A-
2026-05-08 08:20 pm 1.0------ N/A-
2026-05-08 08:10 pm 0.7------ N/A-
2026-05-08 08:00 pm 1.0------ N/A-
2026-05-08 07:50 pm 1.0------ N/A-
2026-05-08 07:40 pm 1.0------ N/A-
2026-05-08 07:30 pm 1.0------ N/A-
2026-05-08 07:20 pm 1.0------ N/A-
2026-05-08 07:10 pm 1.0------ N/A-
2026-05-08 07:00 pm 1.0------ N/A-
2026-05-08 06:50 pm 0.7------ N/A-
2026-05-08 06:40 pm 0.7------ N/A-
2026-05-08 06:30 pm 0.7------ N/A-
2026-05-08 06:20 pm 0.7------ N/A-
2026-05-08 06:10 pm 0.7------ N/A-
2026-05-08 06:00 pm 0.7------ N/A-
2026-05-08 05:50 pm 0.7------ N/A-
2026-05-08 05:40 pm 0.7------ N/A-
2026-05-08 05:30 pm 0.3------ N/A-
2026-05-08 05:20 pm 0.3------ N/A-
2026-05-08 05:10 pm 0.3------ N/A-
2026-05-08 05:00 pm 0.3------ N/A-
2026-05-08 04:50 pm 0.3------ N/A-
2026-05-08 04:40 pm 0.3------ N/A-
2026-05-08 04:30 pm 0.3------ N/A-
2026-05-08 04:20 pm 0.3------ N/A-
2026-05-08 04:10 pm 0.7------ N/A-
2026-05-08 04:00 pm 0.7------ N/A-
2026-05-08 03:50 pm 0.7------ N/A-
2026-05-08 03:40 pm 0.7------ N/A-
2026-05-08 03:30 pm 0.7------ N/A-
2026-05-08 03:20 pm 0.7------ N/A-
2026-05-08 03:10 pm 0.7------ N/A-
2026-05-08 03:00 pm 0.7------ N/A-
2026-05-08 02:50 pm 0.7------ N/A-
2026-05-08 02:40 pm 1.0------ N/A-
2026-05-08 02:30 pm 0.7------ N/A-
2026-05-08 02:20 pm 1.0------ N/A-
2026-05-08 02:10 pm 1.0------ N/A-
2026-05-08 02:00 pm 1.0------ N/A-
2026-05-08 01:50 pm 1.0------ N/A-
2026-05-08 01:40 pm 1.0------ N/A-
2026-05-08 01:30 pm 1.0------ N/A-
2026-05-08 01:20 pm 1.0------ N/A-
2026-05-08 01:10 pm 1.3------ N/A-
2026-05-08 01:00 pm 1.3------ N/A-
2026-05-08 12:50 pm 1.3------ N/A-
2026-05-08 12:40 pm 1.3------ N/A-
2026-05-08 12:30 pm 1.3------ N/A-
2026-05-08 12:20 pm 1.3------ N/A-
2026-05-08 12:10 pm 1.3------ N/A-
2026-05-08 12:00 pm 1.3------ N/A-
2026-05-08 11:50 am 1.3------ N/A-
2026-05-08 11:40 am 1.3------ N/A-
2026-05-08 11:30 am 1.3------ N/A-
2026-05-08 11:20 am 1.3------ N/A-
2026-05-08 11:10 am 1.3------ N/A-
2026-05-08 11:00 am 1.6------ N/A-
2026-05-08 10:50 am 1.6------ N/A-
2026-05-08 10:40 am 1.3------ N/A-
2026-05-08 10:30 am 1.3------ N/A-
2026-05-08 10:20 am 1.3------ N/A-
2026-05-08 10:10 am 1.3------ N/A-
2026-05-08 10:00 am 1.3------ N/A-
2026-05-08 09:50 am 1.3------ N/A-
2026-05-08 09:40 am 1.6------ N/A-
2026-05-08 09:30 am 1.6------ N/A-
2026-05-08 09:20 am 1.6------ N/A-
2026-05-08 09:10 am 1.6------ N/A-
2026-05-08 09:00 am 1.6------ N/A-
2026-05-08 08:50 am 1.6------ N/A-
2026-05-08 08:40 am 1.6------ N/A-
2026-05-08 08:30 am 1.6------ N/A-
2026-05-08 08:20 am 1.3------ N/A-
2026-05-08 08:10 am 1.3------ N/A-
2026-05-08 08:00 am 1.3------ N/A-
2026-05-08 07:50 am 1.3------ N/A-
2026-05-08 07:40 am 1.3------ N/A-
2026-05-08 07:30 am 1.3------ N/A-
2026-05-08 07:20 am 1.3------ N/A-
2026-05-08 07:10 am 1.6------ N/A-
2026-05-08 07:00 am 1.6------ N/A-
2026-05-08 06:50 am 1.3------ N/A-
2026-05-08 06:40 am 1.3------ N/A-
2026-05-08 06:20 am 1.6------ N/A-
2026-05-08 06:10 am 1.6------ N/A-
2026-05-08 06:00 am 1.6------ N/A-
2026-05-08 05:40 am 1.6------ N/A-
2026-05-08 05:30 am 2.0------ N/A-
2026-05-08 05:20 am 1.6------ N/A-
2026-05-08 05:10 am 1.6------ N/A-
2026-05-08 05:00 am 1.6------ N/A-
2026-05-08 04:50 am 1.6------ N/A-
2026-05-08 04:30 am 1.6------ N/A-
2026-05-08 04:20 am 1.6------ N/A-
2026-05-08 04:10 am 1.3------ N/A-
2026-05-08 04:00 am 1.6------ N/A-

Ocean Conditions at 45196 as of
(4:30 am EDT)
0830 GMT on 05/09/2026:

These oceanographic data are displayed in rounded times.

     

Click on the graph icon in the table below to see a time series plot of the last five days of that observation.

Depth (DEPTH): 4.9 ft
5-day plot - Ocean Temperature Ocean Temperature (OTMP):54.45 °F
Previous observations
TIME
(EDT)
DEPTH
ft
5-day plot - Ocean Temperature
OTMP
°F
5-day plot - Conductivity
COND
mS/cm
5-day plot - Salinity
SAL
psu
5-day plot - Oxygen Saturation
O2%
%
5-day plot - Oxygen Concentration
O2PPM
ppm
5-day plot - Chlorophyll
CLCON
ug/l
5-day plot - Turbidity
TURB
FTU
5-day plot - pH
PH
 
5-day plot - Eh
EH
mV
2026-05-09 04:20 am 4.954.39--------
2026-05-09 04:10 am 4.954.34--------
2026-05-09 04:00 am 4.954.30--------
2026-05-09 03:50 am 4.954.27--------
2026-05-09 03:40 am 4.954.21--------
2026-05-09 03:30 am 4.954.16--------
2026-05-09 03:20 am 4.954.14--------
2026-05-09 03:10 am 4.954.12--------
2026-05-09 03:00 am 4.954.10--------
2026-05-09 02:50 am 4.954.05--------
2026-05-09 02:40 am 4.954.01--------
2026-05-09 02:30 am 4.954.00--------
2026-05-09 02:20 am 4.953.96--------
2026-05-09 02:10 am 4.953.92--------
2026-05-09 02:00 am 4.953.91--------
2026-05-09 01:50 am 4.953.87--------
2026-05-09 01:40 am 4.953.83--------
2026-05-09 01:20 am 4.953.78--------
2026-05-09 01:10 am 4.953.78--------
2026-05-09 12:50 am 4.953.73--------
2026-05-09 12:40 am 4.953.73--------
2026-05-09 12:30 am 4.953.69--------
2026-05-09 12:20 am 4.953.71--------
2026-05-09 12:10 am 4.953.64--------
2026-05-09 12:00 am 4.953.67--------
2026-05-08 11:50 pm 4.953.65--------
2026-05-08 11:40 pm 4.953.67--------
2026-05-08 11:20 pm 4.953.62--------
2026-05-08 11:10 pm 4.953.62--------
2026-05-08 11:00 pm 4.953.62--------
2026-05-08 10:50 pm 4.953.56--------
2026-05-08 10:40 pm 4.953.56--------
2026-05-08 10:30 pm 4.953.58--------
2026-05-08 10:20 pm 4.953.53--------
2026-05-08 10:10 pm 4.953.49--------
2026-05-08 10:00 pm 4.953.51--------
2026-05-08 09:50 pm 4.953.49--------
2026-05-08 09:40 pm 4.953.49--------
2026-05-08 09:30 pm 4.953.47--------
2026-05-08 09:20 pm 4.953.49--------
2026-05-08 09:10 pm 4.953.49--------
2026-05-08 09:00 pm 4.953.47--------
2026-05-08 08:50 pm 4.953.46--------
2026-05-08 08:40 pm 4.953.46--------
2026-05-08 08:30 pm 4.953.44--------
2026-05-08 08:20 pm 4.953.44--------
2026-05-08 08:10 pm 4.953.44--------
2026-05-08 08:00 pm 4.953.42--------
2026-05-08 07:50 pm 4.953.38--------
2026-05-08 07:40 pm 4.953.38--------
2026-05-08 07:30 pm 4.953.37--------
2026-05-08 07:20 pm 4.953.33--------
2026-05-08 07:10 pm 4.953.37--------
2026-05-08 07:00 pm 4.953.33--------
2026-05-08 06:50 pm 4.953.33--------
2026-05-08 06:40 pm 4.953.42--------
2026-05-08 06:30 pm 4.953.38--------
2026-05-08 06:20 pm 4.953.38--------
2026-05-08 06:10 pm 4.953.60--------
2026-05-08 06:00 pm 4.953.56--------
2026-05-08 05:50 pm 4.953.38--------
2026-05-08 05:40 pm 4.953.40--------
2026-05-08 05:30 pm 4.953.53--------
2026-05-08 05:20 pm 4.953.51--------
2026-05-08 05:10 pm 4.953.56--------
2026-05-08 05:00 pm 4.953.60--------
2026-05-08 04:50 pm 4.953.60--------
2026-05-08 04:40 pm 4.953.56--------
2026-05-08 04:30 pm 4.953.46--------
2026-05-08 04:20 pm 4.953.47--------
2026-05-08 04:10 pm 4.953.40--------
2026-05-08 04:00 pm 4.953.47--------
2026-05-08 03:50 pm 4.953.37--------
2026-05-08 03:40 pm 4.953.35--------
2026-05-08 03:30 pm 4.953.37--------
2026-05-08 03:20 pm 4.953.38--------
2026-05-08 03:10 pm 4.953.44--------
2026-05-08 03:00 pm 4.953.38--------
2026-05-08 02:50 pm 4.953.38--------
2026-05-08 02:40 pm 4.953.42--------
2026-05-08 02:30 pm 4.953.42--------
2026-05-08 02:20 pm 4.953.42--------
2026-05-08 02:10 pm 4.953.38--------
2026-05-08 02:00 pm 4.953.37--------
2026-05-08 01:50 pm 4.953.37--------
2026-05-08 01:40 pm 4.953.42--------
2026-05-08 01:30 pm 4.953.40--------
2026-05-08 01:20 pm 4.953.33--------
2026-05-08 01:10 pm 4.953.24--------
2026-05-08 01:00 pm 4.953.11--------
2026-05-08 12:50 pm 4.953.22--------
2026-05-08 12:40 pm 4.953.29--------
2026-05-08 12:30 pm 4.953.28--------
2026-05-08 12:20 pm 4.953.26--------
2026-05-08 12:10 pm 4.953.31--------
2026-05-08 12:00 pm 4.953.44--------
2026-05-08 11:50 am 4.953.44--------
2026-05-08 11:40 am 4.953.40--------
2026-05-08 11:30 am 4.953.42--------
2026-05-08 11:20 am 4.953.42--------
2026-05-08 11:10 am 4.953.44--------
2026-05-08 11:00 am 4.953.44--------
2026-05-08 10:50 am 4.953.37--------
2026-05-08 10:40 am 4.953.38--------
2026-05-08 10:30 am 4.953.42--------
2026-05-08 10:20 am 4.953.42--------
2026-05-08 10:10 am 4.953.42--------
2026-05-08 10:00 am 4.953.40--------
2026-05-08 09:50 am 4.953.42--------
2026-05-08 09:40 am 4.953.38--------
2026-05-08 09:30 am 4.953.37--------
2026-05-08 09:20 am 4.953.35--------
2026-05-08 09:10 am 4.953.35--------
2026-05-08 09:00 am 4.953.35--------
2026-05-08 08:50 am 4.953.38--------
2026-05-08 08:40 am 4.953.38--------
2026-05-08 08:30 am 4.953.40--------
2026-05-08 08:20 am 4.953.40--------
2026-05-08 08:10 am 4.953.40--------
2026-05-08 08:00 am 4.953.38--------
2026-05-08 07:50 am 4.953.38--------
2026-05-08 07:40 am 4.953.38--------
2026-05-08 07:30 am 4.953.37--------
2026-05-08 07:20 am 4.953.38--------
2026-05-08 07:10 am 4.953.38--------
2026-05-08 07:00 am 4.953.38--------
2026-05-08 06:50 am 4.953.37--------
2026-05-08 06:40 am 4.953.37--------
2026-05-08 06:20 am 4.953.35--------
2026-05-08 06:10 am 4.953.33--------
2026-05-08 06:00 am 4.953.35--------
2026-05-08 05:40 am 4.953.29--------
2026-05-08 05:30 am 4.953.29--------
2026-05-08 05:20 am 4.953.29--------
2026-05-08 05:10 am 4.953.28--------
2026-05-08 05:00 am 4.953.26--------
2026-05-08 04:50 am 4.953.22--------
2026-05-08 04:30 am 4.953.26--------
2026-05-08 04:20 am 4.953.26--------
2026-05-08 04:10 am 4.953.26--------
2026-05-08 04:00 am 4.953.24--------